Time;durP1;ratioP1;P1;durP2;ratioP2;P2;SDS_P1;SDS_P2;PMS_P1;PMS_P2;Temp;Humidity;BMP_temperature;BMP_pressure;BME280_temperature;BME280_humidity;BME280_pressure;Samples;Min_cycle;Max_cycle;Signal;HPM_P1;HPM_P2
2021/06/08 00:02:07;;;;;;;9.85;6.50;;;;;;;18.95;88.99;100752.00;4788833;29;20054;-77
2021/06/08 00:05:12;;;;;;;10.60;5.05;;;;;;;19.05;88.86;100751.78;4777526;30;20054;-76
2021/06/08 00:08:16;;;;;;;9.10;5.97;;;;;;;19.10;88.81;100739.31;4787680;30;20058;-77
2021/06/08 00:11:20;;;;;;;11.07;5.53;;;;;;;19.17;88.18;100745.75;4788440;30;20123;-78
2021/06/08 00:14:25;;;;;;;11.18;5.50;;;;;;;19.27;88.25;100745.50;4778008;30;20062;-75
2021/06/08 00:17:30;;;;;;;8.10;5.55;;;;;;;19.27;88.27;100746.34;4789111;30;20062;-78
2021/06/08 00:20:35;;;;;;;11.48;6.22;;;;;;;19.32;88.06;100746.66;4787651;30;20058;-75
2021/06/08 00:23:55;;;;;;;7.85;6.18;;;;;;;19.28;88.36;100747.22;4775592;30;20465;-75
2021/06/08 00:26:59;;;;;;;12.80;5.95;;;;;;;19.28;88.27;100744.47;4787645;30;20046;-77
2021/06/08 00:30:04;;;;;;;8.90;5.72;;;;;;;19.26;88.30;100749.25;4777939;30;20074;-79
2021/06/08 00:33:08;;;;;;;11.15;5.90;;;;;;;19.31;88.53;100747.66;4788672;30;20054;-82
2021/06/08 00:36:14;;;;;;;8.43;5.70;;;;;;;19.30;88.27;100736.97;4786771;30;20046;-78
2021/06/08 00:39:19;;;;;;;11.18;6.05;;;;;;;19.37;88.30;100737.97;4787563;30;20054;-79
2021/06/08 00:42:28;;;;;;;7.28;5.13;;;;;;;19.44;87.71;100745.22;4787166;30;20058;-79
2021/06/08 00:45:32;;;;;;;10.50;5.70;;;;;;;19.36;87.62;100748.00;4787829;30;20503;-75
2021/06/08 00:48:36;;;;;;;13.35;5.93;;;;;;;19.37;87.32;100741.56;4786910;30;20057;-74
2021/06/08 00:51:42;;;;;;;6.35;5.03;;;;;;;19.40;86.75;100740.34;4776732;30;20070;-78
2021/06/08 00:54:46;;;;;;;8.65;5.60;;;;;;;19.39;86.96;100738.63;4788071;30;20519;-79
2021/06/08 00:57:51;;;;;;;9.40;5.70;;;;;;;19.41;86.90;100744.72;4786193;30;20408;-79
2021/06/08 01:00:55;;;;;;;12.82;5.53;;;;;;;19.38;86.72;100742.41;4786699;30;20058;-80
2021/06/08 01:04:02;;;;;;;8.60;5.72;;;;;;;19.35;87.04;100737.28;4776049;30;20054;-76
2021/06/08 01:07:07;;;;;;;7.80;5.60;;;;;;;19.31;87.36;100747.66;4787792;30;20126;-77
2021/06/08 01:10:13;;;;;;;10.95;5.80;;;;;;;19.34;87.34;100741.00;4774996;30;20074;-79
2021/06/08 01:13:17;;;;;;;9.27;5.07;;;;;;;19.34;87.44;100738.28;4787689;29;20058;-79
2021/06/08 01:16:23;;;;;;;9.40;6.10;;;;;;;19.28;86.98;100739.84;4787500;30;20074;-76
2021/06/08 01:19:27;;;;;;;13.52;6.30;;;;;;;19.12;87.27;100741.84;4788042;30;20050;-80
2021/06/08 01:22:32;;;;;;;10.23;5.70;;;;;;;18.99;87.99;100747.88;4786162;30;20050;-78
2021/06/08 01:25:36;;;;;;;10.35;5.95;;;;;;;19.00;88.16;100733.28;4786465;30;20051;-77
2021/06/08 01:28:41;;;;;;;9.73;5.35;;;;;;;18.95;88.18;100732.09;4786810;30;20547;-81
2021/06/08 01:31:47;;;;;;;10.57;5.35;;;;;;;18.98;88.17;100732.59;4787495;30;20054;-79
2021/06/08 01:34:55;;;;;;;10.05;5.70;;;;;;;18.94;88.24;100738.56;4786053;30;20058;-80
2021/06/08 01:37:59;;;;;;;9.68;5.90;;;;;;;18.85;88.33;100732.34;4786771;30;20058;-79
2021/06/08 01:41:03;;;;;;;17.73;6.22;;;;;;;18.73;88.93;100728.31;4777256;30;20054;-79
2021/06/08 01:44:12;;;;;;;12.57;6.60;;;;;;;18.69;89.49;100730.53;4787443;30;20538;-79
2021/06/08 01:47:16;;;;;;;11.55;6.40;;;;;;;18.67;89.60;100731.75;4785835;30;20054;-78
2021/06/08 01:50:20;;;;;;;13.85;6.47;;;;;;;18.70;89.79;100731.41;4786663;30;20051;-78
2021/06/08 01:53:36;;;;;;;12.82;6.50;;;;;;;18.80;89.38;100726.59;4787311;30;20395;-78
2021/06/08 01:56:44;;;;;;;14.27;5.82;;;;;;;18.92;88.67;100736.03;4786611;30;20059;-80
2021/06/08 02:00:23;;;;;;;10.38;5.50;;;;;;;18.89;88.53;100732.84;4787685;30;20058;-80
2021/06/08 02:03:33;;;;;;;9.20;5.75;;;;;;;18.88;88.71;100734.72;4787492;30;20538;-78
2021/06/08 02:06:46;;;;;;;10.15;5.45;;;;;;;18.82;88.98;100732.69;4786114;30;20050;-80
2021/06/08 02:10:01;;;;;;;11.02;6.10;;;;;;;18.81;88.91;100728.28;4787525;30;20514;-77
2021/06/08 02:13:28;;;;;;;10.48;5.95;;;;;;;18.80;88.83;100737.47;4787003;30;20058;-77
2021/06/08 02:16:49;;;;;;;9.93;5.68;;;;;;;18.89;88.60;100738.28;4776489;30;20051;-79
2021/06/08 02:20:01;;;;;;;9.25;5.18;;;;;;;18.89;88.50;100732.84;4785436;30;20058;-77
2021/06/08 02:23:03;;;;;;;17.77;5.60;;;;;;;18.95;88.39;100740.25;4793629;30;20054;-76
2021/06/08 02:26:08;;;;;;;11.20;5.80;;;;;;;18.96;88.57;100741.97;4789537;29;20062;-75
2021/06/08 02:29:15;;;;;;;12.43;6.03;;;;;;;18.99;88.33;100742.44;4790967;30;20054;-74
2021/06/08 02:32:20;;;;;;;7.43;6.10;;;;;;;19.05;87.96;100738.16;4789688;30;20046;-74
2021/06/08 02:35:25;;;;;;;9.93;6.68;;;;;;;19.05;88.28;100738.16;4789980;30;20058;-76
2021/06/08 02:38:35;;;;;;;10.85;6.70;;;;;;;19.10;88.27;100746.63;4788855;30;20074;-75
2021/06/08 02:41:40;;;;;;;10.02;7.43;;;;;;;19.11;88.31;100741.00;4789227;30;20511;-77
2021/06/08 02:44:47;;;;;;;11.23;6.80;;;;;;;19.17;88.21;100742.16;4789864;30;20050;-78
2021/06/08 02:47:52;;;;;;;9.57;6.22;;;;;;;19.23;87.53;100736.00;4790277;30;20054;-80
2021/06/08 02:50:58;;;;;;;9.00;6.07;;;;;;;19.22;87.65;100737.03;4789000;30;20515;-76
2021/06/08 02:54:04;;;;;;;9.77;6.05;;;;;;;19.07;88.09;100738.81;4789533;30;20059;-76
2021/06/08 02:57:10;;;;;;;11.10;6.10;;;;;;;19.07;88.19;100742.41;4790154;30;20054;-75
2021/06/08 03:00:15;;;;;;;8.73;6.03;;;;;;;19.01;88.38;100747.72;4788394;30;20059;-82
2021/06/08 03:03:25;;;;;;;10.20;5.38;;;;;;;18.95;88.61;100738.41;4788889;30;20054;-79
2021/06/08 03:06:35;;;;;;;9.75;4.90;;;;;;;18.87;88.36;100746.59;4789960;30;20058;-80
2021/06/08 03:10:04;;;;;;;8.65;5.60;;;;;;;18.89;88.65;100751.88;4788802;30;20058;-79
2021/06/08 03:13:10;;;;;;;10.68;4.60;;;;;;;18.92;88.10;100752.34;4790218;30;20140;-82
2021/06/08 03:16:17;;;;;;;9.82;4.68;;;;;;;18.94;88.31;100749.44;4788035;30;20050;-81
2021/06/08 03:19:25;;;;;;;9.45;4.40;;;;;;;19.07;88.11;100745.13;4788941;30;20054;-82
2021/06/08 03:22:31;;;;;;;9.85;4.47;;;;;;;19.08;87.40;100754.13;4789663;30;20054;-82
2021/06/08 03:25:37;;;;;;;6.72;3.65;;;;;;;19.07;87.12;100750.56;4787940;30;20054;-82
2021/06/08 03:28:44;;;;;;;12.32;4.60;;;;;;;18.97;87.05;100747.22;4788600;30;20407;-83
2021/06/08 03:31:48;;;;;;;8.07;3.95;;;;;;;19.02;87.40;100752.13;4789402;30;20415;-82
2021/06/08 03:34:54;;;;;;;10.05;3.88;;;;;;;18.92;87.51;100751.50;4790045;30;20062;-83
2021/06/08 03:37:59;;;;;;;8.30;4.55;;;;;;;18.86;87.97;100750.38;4787149;30;20054;-80
2021/06/08 03:41:04;;;;;;;9.65;4.20;;;;;;;18.80;88.23;100751.06;4788622;30;20071;-79
2021/06/08 03:44:09;;;;;;;10.10;4.82;;;;;;;18.79;88.50;100752.06;4789110;30;20055;-80
2021/06/08 03:47:17;;;;;;;10.27;4.60;;;;;;;18.70;89.12;100754.00;4787287;30;20506;-81
2021/06/08 03:50:22;;;;;;;9.50;4.57;;;;;;;18.59;89.50;100757.09;4788264;30;20054;-81
2021/06/08 03:53:27;;;;;;;12.98;4.30;;;;;;;18.56;89.67;100757.47;4788757;30;20062;-82
2021/06/08 03:56:33;;;;;;;11.20;4.78;;;;;;;18.46;90.25;100754.13;4789160;30;20055;-81
2021/06/08 03:59:39;;;;;;;12.23;4.63;;;;;;;18.55;90.49;100763.94;4787632;30;20046;-83
2021/06/08 04:02:45;;;;;;;7.20;4.82;;;;;;;18.58;90.24;100758.13;4788320;30;20064;-80
2021/06/08 04:05:54;;;;;;;8.40;4.72;;;;;;;18.59;90.13;100767.16;4788857;30;20055;-80
2021/06/08 04:09:03;;;;;;;14.68;4.97;;;;;;;18.55;90.35;100763.94;4787456;30;20054;-83
2021/06/08 04:12:09;;;;;;;8.10;4.82;;;;;;;18.61;90.30;100755.06;4788629;30;20054;-80
2021/06/08 04:15:14;;;;;;;8.38;4.38;;;;;;;18.66;89.97;100754.53;4789320;30;20051;-83
2021/06/08 04:18:20;;;;;;;7.95;4.43;;;;;;;18.65;90.00;100764.56;4787384;30;20404;-82
2021/06/08 04:21:26;;;;;;;9.90;4.85;;;;;;;18.66;90.25;100769.00;4788042;30;20059;-77
2021/06/08 04:24:30;;;;;;;8.80;4.05;;;;;;;18.70;90.12;100770.31;4777523;30;20503;-82
2021/06/08 04:27:35;;;;;;;7.65;4.15;;;;;;;18.73;90.06;100772.69;4786683;30;20046;-82
2021/06/08 04:30:40;;;;;;;11.73;4.20;;;;;;;18.77;89.99;100765.88;4787311;30;20070;-78
2021/06/08 04:33:45;;;;;;;8.82;3.85;;;;;;;18.81;89.68;100775.34;4787825;30;20050;-74
2021/06/08 04:36:50;;;;;;;11.43;4.30;;;;;;;18.82;89.54;100768.91;4788540;30;20058;-79
2021/06/08 04:39:54;;;;;;;8.68;4.10;;;;;;;18.84;89.33;100774.16;4777795;30;20503;-78
2021/06/08 04:42:59;;;;;;;9.75;3.88;;;;;;;18.93;89.20;100774.97;4776152;30;20058;-77
2021/06/08 04:46:10;;;;;;;10.20;3.78;;;;;;;19.03;88.63;100770.16;4787192;30;20071;-75
2021/06/08 04:49:16;;;;;;;9.07;4.07;;;;;;;19.10;88.42;100771.97;4788419;30;20055;-75
2021/06/08 04:52:20;;;;;;;13.40;3.83;;;;;;;19.19;87.83;100780.94;4786898;30;20051;-75
2021/06/08 04:55:25;;;;;;;6.70;3.85;;;;;;;19.18;87.64;100777.34;4787443;30;20050;-75
2021/06/08 04:58:30;;;;;;;6.80;3.50;;;;;;;19.22;86.86;100776.00;4787865;30;20416;-75
2021/06/08 05:01:40;;;;;;;29.48;20.08;;;;;;;19.16;87.57;100778.59;4788357;30;20111;-73
2021/06/08 05:04:45;;;;;;;30.52;24.38;;;;;;;19.20;87.67;100778.03;4787250;30;20044;-79
2021/06/08 05:08:32;;;;;;;12.40;5.28;;;;;;;19.17;87.59;100774.81;4787628;30;20043;-74
2021/06/08 05:11:46;;;;;;;12.73;3.58;;;;;;;19.17;87.54;100781.13;4748505;30;20071;-74
2021/06/08 05:14:54;;;;;;;7.28;3.60;;;;;;;19.25;87.56;100781.06;4750128;30;20059;-75
2021/06/08 05:17:59;;;;;;;8.88;4.15;;;;;;;19.28;87.67;100779.88;4750568;30;20063;-76
2021/06/08 05:21:05;;;;;;;9.68;4.18;;;;;;;19.34;87.40;100790.03;4750588;30;20070;-74
2021/06/08 05:24:11;;;;;;;8.30;4.13;;;;;;;19.50;87.11;100789.09;4750533;30;20424;-74
2021/06/08 05:27:16;;;;;;;8.38;4.32;;;;;;;19.51;86.84;100791.63;4748214;30;20157;-81
2021/06/08 05:30:21;;;;;;;7.32;3.67;;;;;;;19.58;86.54;100792.59;4750360;30;20063;-79
2021/06/08 05:33:26;;;;;;;7.85;4.13;;;;;;;19.59;86.25;100796.16;4749380;30;20063;-79
2021/06/08 05:36:35;;;;;;;6.40;3.38;;;;;;;19.74;86.07;100794.34;4740096;30;20063;-74
2021/06/08 05:39:41;;;;;;;13.32;3.47;;;;;;;19.82;85.39;100800.59;4751133;30;20562;-74
2021/06/08 05:42:46;;;;;;;7.10;3.58;;;;;;;19.87;85.12;100803.63;4751132;30;20153;-74
2021/06/08 05:45:51;;;;;;;8.98;3.75;;;;;;;19.87;84.83;100800.88;4750203;30;20519;-74
2021/06/08 05:48:55;;;;;;;58.42;40.03;;;;;;;19.90;85.07;100800.50;4771462;30;20135;-74
2021/06/08 05:52:01;;;;;;;22.60;12.73;;;;;;;19.95;84.71;100799.94;4759708;30;20052;-74
2021/06/08 05:55:06;;;;;;;20.95;13.52;;;;;;;20.02;84.42;100804.47;4769938;30;20056;-73
2021/06/08 05:58:11;;;;;;;8.77;4.22;;;;;;;20.15;84.36;100808.47;4770745;30;20051;-72
2021/06/08 06:01:15;;;;;;;11.68;3.92;;;;;;;20.30;83.41;100810.19;4762510;30;20058;-73
2021/06/08 06:04:24;;;;;;;11.02;3.50;;;;;;;20.40;82.81;100809.91;4763221;30;20063;-74
2021/06/08 06:07:28;;;;;;;7.90;3.83;;;;;;;20.55;82.11;100813.50;4773925;30;20062;-73
2021/06/08 06:10:32;;;;;;;13.10;3.58;;;;;;;20.49;81.88;100814.28;4791888;30;20063;-74
2021/06/08 06:13:48;;;;;;;9.73;3.67;;;;;;;20.55;81.71;100814.34;4791748;30;20054;-72
2021/06/08 06:16:54;;;;;;;9.48;3.30;;;;;;;20.61;81.28;100818.22;4780704;30;20058;-73
2021/06/08 06:19:59;;;;;;;10.32;3.50;;;;;;;20.76;80.80;100816.34;4780442;30;20062;-73
2021/06/08 06:23:05;;;;;;;6.25;2.90;;;;;;;21.02;79.79;100822.13;4791406;30;20054;-72
2021/06/08 06:26:10;;;;;;;7.82;3.17;;;;;;;21.33;78.47;100820.00;4791069;30;20062;-73
2021/06/08 06:29:14;;;;;;;7.20;2.75;;;;;;;21.44;77.99;100815.94;4780253;30;20059;-72
2021/06/08 06:32:20;;;;;;;7.80;2.58;;;;;;;21.60;77.35;100821.16;4791472;30;20063;-70
2021/06/08 06:35:25;;;;;;;8.75;3.28;;;;;;;21.88;76.26;100821.25;4791422;30;20075;-72
2021/06/08 06:38:31;;;;;;;6.25;2.72;;;;;;;22.16;75.28;100815.81;4791306;30;20059;-71
2021/06/08 06:41:42;;;;;;;9.52;2.70;;;;;;;22.37;74.64;100829.41;4791074;30;20447;-74
2021/06/08 06:44:48;;;;;;;8.35;2.58;;;;;;;22.81;73.05;100826.38;4780337;30;20074;-73
2021/06/08 06:48:02;;;;;;;8.95;2.55;;;;;;;23.25;70.35;100824.06;4790552;30;20070;-73
2021/06/08 06:51:06;;;;;;;5.15;2.60;;;;;;;23.46;68.02;100829.41;4791175;30;20082;-74
2021/06/08 06:54:11;;;;;;;7.47;2.70;;;;;;;23.44;68.14;100827.94;4790823;30;20055;-73
2021/06/08 06:57:15;;;;;;;8.30;3.50;;;;;;;23.44;68.84;100826.03;4791269;30;20062;-73
2021/06/08 07:00:20;;;;;;;5.97;2.78;;;;;;;23.63;68.29;100824.38;4779681;30;20058;-73
2021/06/08 07:03:28;;;;;;;5.95;2.58;;;;;;;23.97;67.44;100823.41;4789259;30;20539;-73
2021/06/08 07:06:34;;;;;;;8.05;2.90;;;;;;;24.29;65.96;100828.06;4784955;30;20054;-74
2021/06/08 07:09:39;;;;;;;5.60;2.80;;;;;;;24.85;64.76;100832.00;4788166;30;20050;-76
2021/06/08 07:12:46;;;;;;;8.07;2.92;;;;;;;25.41;61.74;100834.94;4783142;30;20050;-74
2021/06/08 07:15:52;;;;;;;11.55;3.42;;;;;;;25.82;60.26;100837.28;4790152;30;20055;-74
2021/06/08 07:18:56;;;;;;;5.20;2.95;;;;;;;26.39;57.81;100831.53;4790035;30;20054;-74
2021/06/08 07:22:01;;;;;;;6.63;3.30;;;;;;;26.79;56.27;100829.25;4790359;30;20074;-74
2021/06/08 07:25:07;;;;;;;4.82;3.05;;;;;;;26.82;55.53;100836.22;4778721;30;20063;-75
2021/06/08 07:28:12;;;;;;;6.10;3.70;;;;;;;26.51;56.55;100828.03;4790390;30;20082;-74
2021/06/08 07:31:26;;;;;;;7.88;3.60;;;;;;;26.82;55.62;100827.94;4789664;30;20085;-75
2021/06/08 07:34:41;;;;;;;6.75;4.40;;;;;;;26.74;55.92;100831.00;4778884;30;20123;-74
2021/06/08 07:37:52;;;;;;;8.48;3.80;;;;;;;26.56;55.80;100828.22;4789993;30;20514;-74
2021/06/08 07:41:00;;;;;;;8.93;4.15;;;;;;;26.54;56.61;100824.84;4776952;30;20058;-73
2021/06/08 07:44:11;;;;;;;7.57;4.18;;;;;;;26.62;55.65;100836.38;4778715;30;20047;-74
2021/06/08 07:47:18;;;;;;;7.05;4.00;;;;;;;26.42;55.09;100828.31;4789331;30;20066;-73
2021/06/08 07:50:26;;;;;;;5.68;3.42;;;;;;;26.26;56.19;100839.06;4789677;30;20122;-74
2021/06/08 07:53:32;;;;;;;5.95;4.38;;;;;;;25.95;56.83;100836.34;4788204;30;20545;-76
2021/06/08 07:56:37;;;;;;;6.20;4.30;;;;;;;25.83;57.61;100834.28;4776578;30;20369;-74
2021/06/08 07:59:42;;;;;;;7.18;4.65;;;;;;;25.62;58.35;100831.91;4778888;30;20054;-72
2021/06/08 08:02:47;;;;;;;10.20;5.57;;;;;;;25.36;59.11;100834.75;4789395;30;20166;-74
2021/06/08 08:05:53;;;;;;;12.13;5.35;;;;;;;25.61;58.62;100838.47;4789495;30;20058;-77
2021/06/08 08:08:58;;;;;;;10.75;5.65;;;;;;;25.78;58.30;100830.50;4789018;30;20058;-74
2021/06/08 08:12:03;;;;;;;7.40;5.75;;;;;;;25.90;57.77;100825.97;4789158;30;20073;-74
2021/06/08 08:15:10;;;;;;;9.57;6.07;;;;;;;26.19;56.65;100825.38;4788904;30;20066;-73
2021/06/08 08:18:15;;;;;;;16.67;7.28;;;;;;;26.44;56.13;100826.19;4789250;30;20054;-75
2021/06/08 08:21:20;;;;;;;10.70;6.93;;;;;;;26.54;55.91;100824.84;4788784;30;20062;-74
2021/06/08 08:24:24;;;;;;;10.07;6.18;;;;;;;26.87;54.26;100822.59;4788990;29;20070;-74
2021/06/08 08:27:29;;;;;;;11.40;5.90;;;;;;;27.10;53.36;100825.50;4789404;30;20114;-74
2021/06/08 08:30:33;;;;;;;9.82;6.55;;;;;;;27.34;53.18;100829.22;4788765;30;20058;-74
2021/06/08 08:33:38;;;;;;;8.25;6.80;;;;;;;27.92;51.73;100830.31;4788990;30;20058;-74
2021/06/08 08:36:42;;;;;;;8.30;6.30;;;;;;;28.38;49.64;100824.03;4789187;30;20050;-74
2021/06/08 08:39:49;;;;;;;9.57;6.53;;;;;;;28.68;48.61;100819.28;4789051;30;20063;-75
2021/06/08 08:42:54;;;;;;;9.82;5.72;;;;;;;29.08;48.28;100813.78;4788953;30;20502;-76
2021/06/08 08:45:58;;;;;;;10.32;5.75;;;;;;;29.54;46.83;100815.56;4788517;30;20062;-76
2021/06/08 08:49:05;;;;;;;8.43;6.15;;;;;;;29.61;45.82;100816.25;4788270;30;20051;-74
2021/06/08 08:52:11;;;;;;;8.50;5.50;;;;;;;29.30;46.87;100808.47;4777441;30;20046;-76
2021/06/08 08:55:15;;;;;;;8.95;6.03;;;;;;;29.50;46.25;100815.22;4788224;30;20059;-73
2021/06/08 08:58:27;;;;;;;8.40;6.85;;;;;;;29.21;46.46;100812.72;4788688;30;20054;-74
2021/06/08 09:01:34;;;;;;;10.25;6.00;;;;;;;29.28;47.03;100810.63;4788636;30;20061;-73
2021/06/08 09:04:38;;;;;;;7.03;6.03;;;;;;;29.01;47.80;100818.59;4777308;30;20066;-73
2021/06/08 09:07:43;;;;;;;7.57;4.80;;;;;;;29.23;47.63;100821.59;4788809;30;20062;-74
2021/06/08 09:10:48;;;;;;;7.40;4.93;;;;;;;29.44;47.47;100812.59;4788183;30;20062;-74
2021/06/08 09:13:52;;;;;;;8.38;5.22;;;;;;;29.68;46.04;100816.94;4788325;30;20487;-75
2021/06/08 09:16:57;;;;;;;6.60;5.43;;;;;;;29.54;45.91;100813.66;4788148;30;20059;-74
2021/06/08 09:20:05;;;;;;;8.48;6.15;;;;;;;29.80;45.55;100822.47;4788371;30;20062;-75
2021/06/08 09:23:11;;;;;;;9.35;5.78;;;;;;;29.62;45.74;100817.94;4787840;30;20068;-74
2021/06/08 09:26:16;;;;;;;11.73;7.70;;;;;;;29.61;45.81;100816.25;4777244;30;20407;-73
2021/06/08 09:29:38;;;;;;;8.90;5.55;;;;;;;29.63;46.58;100808.53;4787835;30;20078;-74
2021/06/08 09:32:43;;;;;;;9.38;6.88;;;;;;;29.60;46.66;100806.28;4788055;30;20064;-75
2021/06/08 09:35:53;;;;;;;8.50;6.25;;;;;;;29.84;46.80;100802.34;4787438;29;20440;-74
2021/06/08 09:39:00;;;;;;;9.18;6.65;;;;;;;29.99;45.39;100802.59;4787755;30;20050;-73
2021/06/08 09:42:21;;;;;;;24.65;22.05;;;;;;;29.98;46.37;100800.06;4788023;30;20051;-74
2021/06/08 09:45:26;;;;;;;9.43;8.43;;;;;;;29.75;46.03;100795.47;4788202;30;20051;-74
2021/06/08 09:48:30;;;;;;;10.75;6.88;;;;;;;29.46;47.42;100802.97;4788177;30;20403;-75
2021/06/08 09:51:53;;;;;;;10.40;6.13;;;;;;;29.51;46.95;100802.22;4788143;30;20055;-74
2021/06/08 09:54:58;;;;;;;9.90;5.68;;;;;;;29.34;47.91;100793.88;4787918;30;20054;-74
2021/06/08 09:58:11;;;;;;;11.75;6.70;;;;;;;29.29;48.01;100790.16;4787977;30;20070;-74
2021/06/08 10:01:21;;;;;;;10.00;6.13;;;;;;;29.02;48.66;100796.25;4787485;30;20526;-75
2021/06/08 10:04:28;;;;;;;7.85;6.88;;;;;;;28.86;49.63;100791.47;4787851;30;20054;-73
2021/06/08 10:07:32;;;;;;;9.43;6.75;;;;;;;28.84;49.78;100796.41;4787764;30;20059;-74
2021/06/08 10:10:45;;;;;;;9.27;6.97;;;;;;;28.80;49.86;100788.84;4787609;30;20050;-74
2021/06/08 10:13:57;;;;;;;8.50;7.57;;;;;;;28.43;50.23;100790.16;4787904;30;20064;-74
2021/06/08 10:17:02;;;;;;;11.38;6.90;;;;;;;28.80;50.13;100789.69;4787495;30;20050;-74
2021/06/08 10:20:24;;;;;;;9.68;6.28;;;;;;;28.52;49.18;100785.94;4787646;30;20054;-74
2021/06/08 10:23:35;;;;;;;9.85;7.63;;;;;;;28.12;50.64;100791.38;4787573;30;20058;-74
2021/06/08 10:26:45;;;;;;;7.82;6.30;;;;;;;27.97;51.77;100780.78;4787637;30;20054;-73
2021/06/08 10:29:51;;;;;;;9.25;6.25;;;;;;;27.99;50.54;100775.84;4787569;30;20051;-74
2021/06/08 10:32:56;;;;;;;6.63;5.10;;;;;;;28.37;50.92;100778.16;4773541;30;20074;-73
2021/06/08 10:36:01;;;;;;;7.18;6.00;;;;;;;28.67;49.96;100765.06;4786987;30;20611;-74
2021/06/08 10:39:08;;;;;;;10.50;6.90;;;;;;;28.82;48.99;100770.09;4776251;30;20135;-74
2021/06/08 10:42:14;;;;;;;7.30;6.28;;;;;;;29.03;49.56;100772.22;4786737;30;20054;-74
2021/06/08 10:45:19;;;;;;;9.68;6.95;;;;;;;28.97;49.56;100767.66;4787168;29;20067;-74
2021/06/08 10:48:41;;;;;;;9.13;6.25;;;;;;;28.80;50.00;100762.06;4790348;30;20054;-74
2021/06/08 10:52:09;;;;;;;10.55;7.00;;;;;;;28.70;49.91;100761.00;4789884;30;20074;-75
2021/06/08 10:55:14;;;;;;;9.38;6.10;;;;;;;28.71;50.51;100755.22;4790255;30;20058;-74
2021/06/08 10:58:43;;;;;;;8.27;5.57;;;;;;;28.74;50.48;100751.16;4790098;30;20058;-74
2021/06/08 11:01:48;;;;;;;8.02;4.65;;;;;;;28.80;49.74;100761.22;4778768;30;20058;-75
2021/06/08 11:04:54;;;;;;;7.07;5.05;;;;;;;28.88;49.81;100753.38;4790510;30;20058;-75
2021/06/08 11:07:59;;;;;;;10.18;6.85;;;;;;;29.05;48.63;100756.22;4790092;30;20068;-74
2021/06/08 11:11:03;;;;;;;13.02;5.40;;;;;;;29.30;48.71;100750.38;4789686;30;20074;-74
2021/06/08 11:14:28;;;;;;;9.02;5.22;;;;;;;29.41;48.17;100741.16;4790334;30;20076;-74
2021/06/08 11:17:33;;;;;;;9.48;6.55;;;;;;;29.40;48.15;100734.81;4789889;30;20468;-73
2021/06/08 11:20:38;;;;;;;8.43;6.60;;;;;;;29.17;48.40;100734.03;4790199;30;20063;-75
2021/06/08 11:23:45;;;;;;;9.02;6.15;;;;;;;29.08;48.37;100735.53;4778188;30;20050;-74
2021/06/08 11:26:52;;;;;;;12.20;6.15;;;;;;;28.79;48.47;100732.72;4788215;30;20063;-73
2021/06/08 11:29:56;;;;;;;11.88;6.00;;;;;;;28.67;49.69;100726.41;4790094;30;20074;-74
2021/06/08 11:33:06;;;;;;;13.18;6.15;;;;;;;28.19;48.96;100720.31;4788109;30;20058;-74
2021/06/08 11:36:16;;;;;;;8.80;5.30;;;;;;;27.94;49.84;100722.44;4779502;30;20054;-74
2021/06/08 11:39:22;;;;;;;9.90;5.72;;;;;;;27.98;49.36;100724.47;4789604;30;20059;-74
2021/06/08 11:42:34;;;;;;;8.07;5.20;;;;;;;28.07;49.06;100717.53;4788311;30;20400;-73
2021/06/08 11:45:44;;;;;;;6.40;4.35;;;;;;;28.11;50.14;100712.38;4787966;30;20050;-73
2021/06/08 11:49:02;;;;;;;9.35;4.70;;;;;;;28.32;49.64;100709.00;4787836;30;20054;-73
2021/06/08 11:52:13;;;;;;;7.70;4.65;;;;;;;28.44;49.60;100697.97;4776522;30;20058;-73
2021/06/08 11:55:24;;;;;;;5.82;3.63;;;;;;;28.31;50.03;100696.28;4787627;30;20054;-73
2021/06/08 11:58:33;;;;;;;7.13;4.15;;;;;;;28.37;49.03;100698.06;4789316;29;20060;-74
2021/06/08 12:01:40;;;;;;;8.00;4.25;;;;;;;28.37;48.13;100696.16;4789888;30;20063;-73
2021/06/08 12:05:22;;;;;;;10.60;4.80;;;;;;;28.20;49.81;100691.59;4788795;30;20046;-73
2021/06/08 12:08:35;;;;;;;8.52;4.40;;;;;;;27.99;51.47;100679.25;4777924;30;20054;-76
2021/06/08 12:11:39;;;;;;;;;;;;;;;27.61;49.83;100678.84;4789670;30;20082;-74
2021/06/08 12:14:53;;;;;;;7.55;4.60;;;;;;;27.70;50.34;100682.97;4788485;30;19921;-74
2021/06/08 12:18:01;;;;;;;7.75;5.10;;;;;;;27.83;50.38;100679.94;4775166;30;20058;-74
2021/06/08 12:21:17;;;;;;;9.18;5.60;;;;;;;27.73;48.64;100682.44;4788989;30;20054;-76
2021/06/08 12:24:21;;;;;;;7.55;5.60;;;;;;;27.80;49.39;100672.13;4767980;30;20054;-73
2021/06/08 12:27:52;;;;;;;7.55;4.70;;;;;;;27.80;47.93;100668.56;4777714;30;20057;-78
2021/06/08 12:31:12;;;;;;;5.53;3.90;;;;;;;27.97;49.34;100662.09;4788737;30;20062;-75
2021/06/08 12:34:18;;;;;;;6.00;3.45;;;;;;;28.16;49.63;100662.81;4771152;30;20059;-73
2021/06/08 12:37:25;;;;;;;11.07;5.38;;;;;;;28.14;49.93;100659.47;4771327;30;20059;-74
2021/06/08 12:40:29;;;;;;;8.25;5.57;;;;;;;28.05;49.66;100650.69;4771785;30;20508;-74
2021/06/08 12:43:48;;;;;;;11.70;5.93;;;;;;;28.01;50.87;100645.91;4778055;30;20077;-75
2021/06/08 12:46:53;;;;;;;8.93;6.13;;;;;;;28.12;49.55;100650.59;4788589;30;20062;-75
2021/06/08 12:49:58;;;;;;;10.27;6.35;;;;;;;28.12;49.95;100653.34;4788799;30;20070;-76
2021/06/08 12:53:04;;;;;;;10.73;5.22;;;;;;;28.07;50.20;100636.66;4788889;30;20058;-75
2021/06/08 12:56:10;;;;;;;8.27;6.10;;;;;;;27.79;50.36;100631.00;4788690;30;20054;-74
2021/06/08 12:59:15;;;;;;;6.53;5.22;;;;;;;27.81;51.04;100635.19;4788288;30;20069;-73
2021/06/08 13:02:20;;;;;;;10.57;5.18;;;;;;;27.80;50.26;100632.69;4777464;30;20058;-75
2021/06/08 13:05:31;;;;;;;9.57;5.15;;;;;;;27.89;50.07;100628.47;4788752;30;20356;-73
2021/06/08 13:08:36;;;;;;;7.47;4.65;;;;;;;27.70;48.34;100628.59;4777348;30;20132;-75
2021/06/08 13:11:41;;;;;;;6.07;5.07;;;;;;;27.54;45.69;100629.31;4788272;30;20510;-74
2021/06/08 13:14:45;;;;;;;7.13;3.80;;;;;;;27.87;46.60;100622.38;4785642;29;20058;-73
2021/06/08 13:17:49;;;;;;;8.23;4.03;;;;;;;27.98;46.42;100627.88;4788214;30;20427;-75
2021/06/08 13:20:56;;;;;;;8.20;3.85;;;;;;;28.05;47.10;100627.75;4776983;30;20058;-74
2021/06/08 13:24:14;;;;;;;8.10;3.55;;;;;;;28.05;45.42;100622.25;4788242;30;20074;-74
2021/06/08 13:27:22;;;;;;;6.43;3.40;;;;;;;27.98;45.00;100621.50;4787824;30;20066;-74
2021/06/08 13:30:32;;;;;;;6.72;4.40;;;;;;;27.77;46.44;100615.50;4788043;30;20411;-74
2021/06/08 13:33:38;;;;;;;7.22;3.70;;;;;;;27.90;46.12;100611.66;4788117;30;20508;-74
2021/06/08 13:36:44;;;;;;;7.45;3.78;;;;;;;27.66;46.07;100610.00;4788043;30;20502;-73
2021/06/08 13:39:49;;;;;;;6.03;3.92;;;;;;;27.56;45.44;100605.09;4788436;30;20392;-73
2021/06/08 13:43:10;;;;;;;6.63;3.30;;;;;;;27.40;44.36;100600.31;4788180;30;20062;-73
2021/06/08 13:46:17;;;;;;;5.38;3.97;;;;;;;27.56;44.97;100593.22;4787788;30;20054;-74
2021/06/08 13:49:38;;;;;;;8.43;4.47;;;;;;;27.58;45.67;100597.41;4788145;30;20509;-75
2021/06/08 13:53:04;;;;;;;6.57;4.00;;;;;;;27.63;44.88;100588.41;4787929;30;20456;-74
2021/06/08 13:56:22;;;;;;;7.35;3.80;;;;;;;27.79;45.56;100598.75;4756849;30;20050;-75
2021/06/08 14:03:19;;;;;;;7.10;4.80;;;;;;;27.66;46.94;100590.69;4787471;30;20062;-74
2021/06/08 14:06:25;;;;;;;6.70;4.18;;;;;;;27.81;46.83;100588.28;4787844;30;20054;-74
2021/06/08 14:09:42;;;;;;;10.50;4.50;;;;;;;27.63;47.75;100583.75;4787579;30;20070;-75
2021/06/08 14:13:09;;;;;;;8.82;4.70;;;;;;;27.66;47.60;100593.47;4787727;30;20054;-73
2021/06/08 14:16:22;;;;;;;6.10;4.30;;;;;;;27.70;48.42;100595.50;4787747;30;20058;-75
2021/06/08 14:19:26;;;;;;;9.82;5.18;;;;;;;27.79;47.90;100604.25;4787906;30;20074;-73
2021/06/08 14:22:30;;;;;;;5.43;4.40;;;;;;;27.71;47.81;100602.69;4790306;30;20428;-73
2021/06/08 14:25:36;;;;;;;7.40;4.50;;;;;;;27.60;47.63;100592.50;4791025;30;20062;-73
2021/06/08 14:28:41;;;;;;;7.75;4.75;;;;;;;27.72;47.49;100589.75;4791117;30;20077;-73
2021/06/08 14:31:46;;;;;;;9.73;4.95;;;;;;;27.81;47.22;100584.69;4791012;30;20050;-73
2021/06/08 14:34:50;;;;;;;7.15;5.05;;;;;;;27.76;47.67;100582.66;4769503;30;20055;-74